Time;durP1;ratioP1;P1;durP2;ratioP2;P2;SDS_P1;SDS_P2;PMS_P1;PMS_P2;Temp;Humidity;BMP_temperature;BMP_pressure;BME280_temperature;BME280_humidity;BME280_pressure;Samples;Min_cycle;Max_cycle;Signal;HPM_P1;HPM_P2
2021/03/03 00:01:09;;;;;;;33.97;22.83;;;4.10;86.90;;;;;;5067515;28;20048;-47
2021/03/03 00:03:38;;;;;;;30.65;22.38;;;4.00;86.40;;;;;;5049585;28;20046;-45
2021/03/03 00:06:07;;;;;;;30.70;23.73;;;4.00;86.90;;;;;;5064903;28;20069;-43
2021/03/03 00:08:36;;;;;;;33.05;24.05;;;4.00;87.20;;;;;;5071573;28;20056;-47
2021/03/03 00:11:07;;;;;;;32.67;22.40;;;3.90;86.80;;;;;;5054920;28;20057;-45
2021/03/03 00:13:36;;;;;;;32.50;22.23;;;3.90;86.30;;;;;;5049536;28;20124;-44
2021/03/03 00:16:05;;;;;;;30.50;22.83;;;3.90;86.80;;;;;;5057402;28;20056;-47
2021/03/03 00:18:33;;;;;;;32.60;23.83;;;3.90;86.50;;;;;;5049519;28;20492;-46
2021/03/03 00:21:00;;;;;;;30.38;23.25;;;3.80;86.40;;;;;;5045524;28;20049;-47
2021/03/03 00:23:31;;;;;;;29.70;21.48;;;3.80;86.50;;;;;;5045896;28;20143;-45
2021/03/03 00:26:02;;;;;;;32.75;24.70;;;3.80;87.20;;;;;;5046759;28;20056;-47
2021/03/03 00:28:32;;;;;;;30.88;23.08;;;3.80;87.40;;;;;;5048088;28;20124;-46
2021/03/03 00:30:58;;;;;;;30.27;23.52;;;3.80;87.30;;;;;;5047177;28;20049;-46
2021/03/03 00:33:24;;;;;;;31.05;22.83;;;3.70;87.80;;;;;;5045870;28;20106;-45
2021/03/03 00:35:53;;;;;;;31.92;23.05;;;3.70;87.70;;;;;;5051726;28;20044;-46
2021/03/03 00:38:22;;;;;;;32.72;23.33;;;3.60;87.30;;;;;;5035227;28;20151;-47
2021/03/03 00:40:48;;;;;;;27.58;20.55;;;3.60;88.00;;;;;;5049561;28;20136;-49
2021/03/03 00:43:17;;;;;;;31.17;24.55;;;3.60;88.80;;;;;;5058237;28;20052;-49
2021/03/03 00:45:46;;;;;;;31.75;23.17;;;3.60;87.90;;;;;;5065004;28;20067;-47
2021/03/03 00:48:12;;;;;;;30.55;24.05;;;3.60;88.00;;;;;;5046341;28;20045;-49
2021/03/03 00:50:38;;;;;;;30.95;23.52;;;3.50;87.70;;;;;;5047092;28;20059;-47
2021/03/03 00:53:12;;;;;;;30.48;21.77;;;3.50;88.00;;;;;;5036938;28;20057;-47
2021/03/03 00:55:38;;;;;;;33.20;21.52;;;3.50;87.90;;;;;;5047985;28;20045;-47
2021/03/03 00:58:04;;;;;;;32.20;24.10;;;3.40;87.80;;;;;;5044831;28;20048;-48
2021/03/03 01:00:30;;;;;;;26.30;20.08;;;3.40;88.30;;;;;;5047552;28;20867;-50
2021/03/03 01:02:56;;;;;;;29.75;21.60;;;3.40;87.80;;;;;;5047942;28;20049;-48
2021/03/03 01:05:28;;;;;;;31.38;23.90;;;3.40;87.80;;;;;;5057639;28;20059;-47
2021/03/03 01:07:58;;;;;;;35.60;25.30;;;3.30;88.20;;;;;;5060321;28;20059;-48
2021/03/03 01:10:29;;;;;;;32.25;23.08;;;3.40;88.70;;;;;;5058823;28;20057;-49
2021/03/03 01:12:58;;;;;;;32.42;24.10;;;3.40;88.30;;;;;;5064910;28;20393;-48
2021/03/03 01:15:23;;;;;;;29.35;22.08;;;3.30;88.30;;;;;;5064530;28;20052;-49
2021/03/03 01:17:55;;;;;;;33.95;24.15;;;3.30;88.50;;;;;;5065357;28;20049;-45
2021/03/03 01:20:24;;;;;;;31.90;24.77;;;3.30;88.80;;;;;;5064219;28;20385;-47
2021/03/03 01:22:50;;;;;;;36.90;26.17;;;3.30;88.20;;;;;;5064518;28;20048;-49
2021/03/03 01:25:16;;;;;;;33.47;23.08;;;3.30;88.40;;;;;;5063753;28;20106;-46
2021/03/03 01:27:47;;;;;;;33.03;24.15;;;3.30;88.70;;;;;;5064350;28;20066;-49
2021/03/03 01:30:19;;;;;;;30.33;21.17;;;3.30;88.70;;;;;;5064399;28;20048;-46
2021/03/03 01:32:51;;;;;;;31.90;23.42;;;3.20;88.00;;;;;;5063430;28;20056;-47
2021/03/03 01:35:17;;;;;;;31.35;21.83;;;3.20;87.80;;;;;;5063985;28;20156;-47
2021/03/03 01:37:45;;;;;;;30.75;21.75;;;3.10;88.20;;;;;;5064583;28;20139;-47
2021/03/03 01:40:12;;;;;;;32.83;21.95;;;3.00;88.30;;;;;;5069411;28;20064;-47
2021/03/03 01:42:37;;;;;;;30.73;22.40;;;3.00;89.00;;;;;;5064415;28;20052;-47
2021/03/03 01:45:07;;;;;;;28.42;22.15;;;3.00;88.70;;;;;;5064368;28;20048;-47
2021/03/03 01:47:33;;;;;;;33.60;23.90;;;2.90;88.20;;;;;;5063973;28;20473;-46
2021/03/03 01:50:12;;;;;;;29.60;22.20;;;3.00;88.60;;;;;;5063274;28;20048;-46
2021/03/03 01:52:41;;;;;;;31.25;22.33;;;2.90;88.60;;;;;;5064237;28;20102;-47
2021/03/03 01:55:16;;;;;;;28.85;21.52;;;2.90;88.00;;;;;;5064640;28;20151;-47
2021/03/03 01:57:45;;;;;;;30.65;21.13;;;2.90;88.10;;;;;;5071010;28;20045;-46
2021/03/03 02:00:20;;;;;;;31.50;22.10;;;2.90;88.00;;;;;;5063546;28;20048;-46
2021/03/03 02:02:49;;;;;;;25.98;20.90;;;2.80;87.80;;;;;;5064270;28;20462;-47
2021/03/03 02:05:16;;;;;;;30.58;21.65;;;2.80;87.80;;;;;;5064554;28;20071;-46
2021/03/03 02:08:16;;;;;;;32.92;23.75;;;2.80;88.10;;;;;;5064510;28;20144;-48
2021/03/03 02:10:52;;;;;;;27.95;21.10;;;2.80;88.20;;;;;;5063158;28;20580;-46
2021/03/03 02:13:41;;;;;;;30.02;21.15;;;2.80;87.80;;;;;;5071988;28;20179;-49
2021/03/03 02:16:15;;;;;;;27.42;21.20;;;2.70;88.00;;;;;;5063664;28;20450;-47
2021/03/03 02:18:43;;;;;;;25.42;19.08;;;2.70;87.70;;;;;;5064046;28;20518;-47
2021/03/03 02:21:14;;;;;;;34.15;23.70;;;2.70;87.70;;;;;;5063244;28;20484;-48
2021/03/03 02:23:59;;;;;;;30.70;24.60;;;2.60;88.90;;;;;;5063445;28;20048;-44
2021/03/03 02:26:34;;;;;;;27.70;21.50;;;2.60;89.30;;;;;;5063384;28;20508;-45
2021/03/03 02:29:24;;;;;;;30.30;22.63;;;2.60;88.80;;;;;;5064085;28;20070;-46
2021/03/03 02:31:53;;;;;;;30.80;22.25;;;2.50;88.80;;;;;;5055006;28;20074;-48
2021/03/03 02:34:29;;;;;;;26.65;20.27;;;2.50;88.10;;;;;;5064276;28;20051;-47
2021/03/03 02:36:56;;;;;;;28.95;21.20;;;2.50;88.30;;;;;;5063250;28;20123;-48
2021/03/03 02:39:29;;;;;;;28.55;22.05;;;2.50;88.80;;;;;;5064012;28;20051;-49
2021/03/03 02:42:04;;;;;;;31.38;22.38;;;2.50;88.40;;;;;;5062714;28;20048;-47
2021/03/03 02:44:39;;;;;;;28.38;21.73;;;2.50;88.50;;;;;;5068035;28;20140;-47
2021/03/03 02:47:05;;;;;;;31.85;22.92;;;2.40;88.40;;;;;;5068624;28;20052;-47
2021/03/03 02:49:35;;;;;;;29.48;21.27;;;2.40;88.40;;;;;;5067147;28;20508;-47
2021/03/03 02:52:01;;;;;;;28.40;21.10;;;2.40;88.50;;;;;;5066693;28;20047;-49
2021/03/03 02:54:29;;;;;;;30.77;21.70;;;2.40;88.40;;;;;;5067515;28;20944;-48
2021/03/03 02:56:55;;;;;;;29.88;22.55;;;2.40;87.90;;;;;;5068074;28;20438;-46
2021/03/03 02:59:34;;;;;;;32.70;23.98;;;2.40;88.00;;;;;;5067339;28;20151;-51
2021/03/03 03:02:10;;;;;;;34.28;25.23;;;2.40;88.60;;;;;;5067039;28;20519;-46
2021/03/03 03:04:47;;;;;;;32.00;22.27;;;2.50;88.60;;;;;;5067346;28;20052;-45
2021/03/03 03:07:20;;;;;;;33.67;23.77;;;2.40;88.40;;;;;;5067672;28;20067;-48
2021/03/03 03:09:49;;;;;;;;;;;2.40;88.20;;;;;;5067014;28;20115;-47
2021/03/03 03:12:23;;;;;;;30.00;22.55;;;2.50;89.10;;;;;;5070473;28;19924;-47
2021/03/03 03:14:54;;;;;;;32.60;25.10;;;2.50;88.60;;;;;;5066584;28;20095;-47
2021/03/03 03:17:24;;;;;;;36.25;26.50;;;2.50;88.40;;;;;;5068040;28;20559;-49
2021/03/03 03:20:00;;;;;;;34.58;25.42;;;2.50;88.80;;;;;;5066948;28;20135;-46
2021/03/03 03:22:30;;;;;;;31.55;23.35;;;2.50;88.60;;;;;;5067009;28;20056;-45
2021/03/03 03:24:57;;;;;;;33.30;22.98;;;2.50;88.20;;;;;;5067711;28;20048;-47
2021/03/03 03:27:27;;;;;;;36.03;26.42;;;2.40;88.20;;;;;;5067545;28;20052;-46
2021/03/03 03:29:58;;;;;;;35.58;25.98;;;2.40;88.60;;;;;;5066983;28;20045;-46
2021/03/03 03:32:29;;;;;;;32.28;24.40;;;2.40;88.70;;;;;;5066549;28;20076;-47
2021/03/03 03:34:58;;;;;;;34.30;24.95;;;2.40;88.60;;;;;;5066766;28;20041;-47
2021/03/03 03:37:25;;;;;;;31.80;23.10;;;2.30;88.90;;;;;;5065561;28;20052;-45
2021/03/03 03:39:52;;;;;;;31.25;22.25;;;2.30;90.00;;;;;;5067683;28;20085;-45
2021/03/03 03:42:23;;;;;;;32.10;23.63;;;2.20;88.80;;;;;;5066580;28;20431;-46
2021/03/03 03:44:55;;;;;;;31.40;23.20;;;2.20;88.80;;;;;;5065166;28;20048;-44
2021/03/03 03:47:22;;;;;;;31.92;22.85;;;2.20;89.30;;;;;;5070982;28;20508;-46
2021/03/03 03:49:54;;;;;;;30.25;22.58;;;2.20;89.30;;;;;;5066528;28;20080;-46
2021/03/03 03:52:21;;;;;;;30.15;21.73;;;2.10;88.80;;;;;;5062197;28;20055;-46
2021/03/03 03:54:58;;;;;;;27.55;20.05;;;2.10;89.00;;;;;;5064510;28;20053;-47
2021/03/03 03:57:27;;;;;;;29.67;22.17;;;2.10;89.20;;;;;;5065543;28;20386;-45
2021/03/03 03:59:53;;;;;;;27.92;21.70;;;2.10;89.50;;;;;;5066577;28;20053;-46
2021/03/03 04:02:19;;;;;;;28.23;20.52;;;2.10;89.70;;;;;;5065175;28;20060;-46
2021/03/03 04:04:48;;;;;;;28.92;21.40;;;2.10;89.40;;;;;;5067443;28;20069;-46
2021/03/03 04:07:17;;;;;;;24.92;19.40;;;2.10;89.00;;;;;;5065199;28;20048;-46
2021/03/03 04:09:48;;;;;;;23.63;18.67;;;2.10;89.20;;;;;;5065536;28;20056;-48
2021/03/03 04:12:17;;;;;;;26.60;20.13;;;2.10;89.50;;;;;;5047333;28;20524;-46
2021/03/03 04:14:43;;;;;;;22.60;18.90;;;2.10;89.50;;;;;;5066092;28;20790;-46
2021/03/03 04:17:14;;;;;;;25.67;19.65;;;2.10;89.50;;;;;;5066669;28;20679;-48
2021/03/03 04:19:43;;;;;;;31.08;22.73;;;2.10;89.20;;;;;;5060016;28;20048;-48
2021/03/03 04:22:13;;;;;;;26.20;19.42;;;2.10;89.40;;;;;;5065200;28;20045;-47
2021/03/03 04:24:46;;;;;;;25.00;18.92;;;2.10;89.20;;;;;;5060446;28;20044;-47
2021/03/03 04:27:15;;;;;;;25.70;19.98;;;2.00;88.90;;;;;;5065020;28;20063;-49
2021/03/03 04:29:48;;;;;;;27.40;20.00;;;2.00;88.90;;;;;;5054862;28;20053;-45
2021/03/03 04:32:17;;;;;;;27.23;18.67;;;2.00;89.30;;;;;;5046489;28;20056;-46
2021/03/03 04:34:45;;;;;;;27.35;20.00;;;2.00;89.40;;;;;;5063895;28;20060;-46
2021/03/03 04:37:11;;;;;;;29.52;21.08;;;2.00;88.90;;;;;;5065452;28;20545;-47
2021/03/03 04:39:40;;;;;;;30.83;22.20;;;2.00;89.80;;;;;;5069259;28;20060;-47
2021/03/03 04:42:10;;;;;;;32.25;22.80;;;2.00;89.60;;;;;;5066747;28;20063;-44
2021/03/03 04:44:39;;;;;;;28.90;22.20;;;2.00;89.60;;;;;;5064659;28;20135;-49
2021/03/03 04:47:07;;;;;;;26.90;20.33;;;2.00;89.40;;;;;;5065798;28;20068;-46
2021/03/03 04:49:34;;;;;;;32.30;21.80;;;2.00;89.30;;;;;;5063964;28;20055;-47
2021/03/03 04:52:09;;;;;;;28.52;21.75;;;2.00;89.30;;;;;;5065056;28;20063;-45
2021/03/03 04:54:35;;;;;;;26.25;21.23;;;2.00;89.80;;;;;;5068273;28;20435;-48
2021/03/03 04:57:05;;;;;;;26.10;21.80;;;2.00;89.60;;;;;;5065013;28;20101;-47
2021/03/03 04:59:34;;;;;;;33.78;24.35;;;2.00;89.60;;;;;;5064315;28;20135;-44
2021/03/03 05:02:07;;;;;;;30.75;22.92;;;2.00;89.50;;;;;;5065523;28;20079;-45
2021/03/03 05:04:40;;;;;;;36.53;26.05;;;2.00;90.00;;;;;;5064204;28;20052;-47
2021/03/03 05:07:08;;;;;;;35.33;25.90;;;2.00;89.90;;;;;;5061901;28;20048;-44
2021/03/03 05:09:40;;;;;;;39.35;26.83;;;2.10;90.00;;;;;;5064779;28;20052;-45
2021/03/03 05:12:07;;;;;;;28.97;22.93;;;2.10;90.00;;;;;;5064293;28;20221;-47
2021/03/03 05:14:33;;;;;;;24.35;20.15;;;2.10;90.10;;;;;;5064266;28;20052;-46
2021/03/03 05:16:59;;;;;;;29.48;21.08;;;2.00;90.00;;;;;;5062927;28;20052;-46
2021/03/03 05:19:28;;;;;;;25.95;19.30;;;2.00;89.80;;;;;;5065141;28;20055;-46
2021/03/03 05:21:59;;;;;;;24.38;18.92;;;2.00;89.40;;;;;;5042276;28;20044;-46
2021/03/03 05:24:29;;;;;;;26.08;20.35;;;2.00;89.40;;;;;;5062630;28;20099;-47
2021/03/03 05:27:01;;;;;;;27.65;20.92;;;1.90;89.90;;;;;;5064337;28;20072;-47
2021/03/03 05:29:27;;;;;;;27.48;21.58;;;1.90;89.90;;;;;;5066097;28;20082;-46
2021/03/03 05:31:59;;;;;;;22.73;18.52;;;1.90;90.10;;;;;;5064616;28;20143;-44
2021/03/03 05:34:29;;;;;;;30.35;20.23;;;1.80;89.60;;;;;;5064341;28;20050;-47
2021/03/03 05:37:02;;;;;;;25.58;19.77;;;1.80;90.00;;;;;;5064172;28;20049;-49
2021/03/03 05:39:31;;;;;;;31.02;21.67;;;1.80;89.60;;;;;;5063546;28;20125;-45
2021/03/03 05:42:04;;;;;;;24.55;19.77;;;1.70;89.60;;;;;;5062850;28;20121;-47
2021/03/03 05:44:33;;;;;;;27.15;21.10;;;1.70;89.60;;;;;;5063935;28;20048;-48
2021/03/03 05:47:01;;;;;;;28.55;21.70;;;1.70;89.40;;;;;;5064878;28;20143;-47
2021/03/03 05:49:34;;;;;;;25.08;20.60;;;1.70;89.60;;;;;;5062771;28;20044;-48
2021/03/03 05:52:02;;;;;;;27.05;20.80;;;1.70;89.60;;;;;;5070152;28;20044;-46
2021/03/03 05:54:33;;;;;;;26.52;20.05;;;1.70;89.40;;;;;;5063764;28;20040;-46
2021/03/03 05:57:05;;;;;;;34.83;23.52;;;1.70;89.50;;;;;;5064637;28;20059;-45
2021/03/03 05:59:37;;;;;;;37.55;28.05;;;1.70;89.90;;;;;;5063896;28;20596;-45
2021/03/03 06:02:07;;;;;;;28.38;22.38;;;1.80;89.90;;;;;;5066850;28;20036;-46
2021/03/03 06:04:38;;;;;;;34.55;23.30;;;1.80;89.60;;;;;;5063367;28;20048;-46
2021/03/03 06:07:05;;;;;;;29.83;21.95;;;1.80;89.50;;;;;;5064469;28;20061;-46
2021/03/03 06:09:34;;;;;;;31.85;22.50;;;1.70;89.20;;;;;;5062996;28;20060;-45
2021/03/03 06:12:01;;;;;;;35.00;26.92;;;1.80;89.40;;;;;;5045774;28;20048;-43
2021/03/03 06:14:31;;;;;;;40.85;29.50;;;1.90;91.10;;;;;;5063991;28;20143;-44
2021/03/03 06:17:11;;;;;;;41.03;28.70;;;1.90;91.70;;;;;;5064404;28;20399;-45
2021/03/03 06:19:37;;;;;;;35.85;26.35;;;1.90;91.60;;;;;;5062722;28;20083;-43
2021/03/03 06:22:23;;;;;;;43.88;30.40;;;1.90;91.10;;;;;;5060174;28;20447;-45
2021/03/03 06:25:02;;;;;;;42.22;29.50;;;2.00;92.20;;;;;;5060468;28;20097;-47
2021/03/03 06:27:38;;;;;;;45.40;30.83;;;1.90;91.50;;;;;;5064877;28;20762;-46
2021/03/03 06:30:10;;;;;;;47.63;31.73;;;2.00;91.40;;;;;;5055019;28;20056;-46
2021/03/03 06:32:52;;;;;;;;;;;2.00;91.10;;;;;;5052089;28;20057;-42
2021/03/03 06:35:20;;;;;;;37.00;27.20;;;2.10;91.50;;;;;;5035159;28;19987;-43
2021/03/03 06:37:57;;;;;;;43.30;29.40;;;2.10;91.40;;;;;;5042529;28;20050;-43
2021/03/03 06:40:24;;;;;;;42.47;29.73;;;2.30;91.70;;;;;;5039918;28;20124;-45
2021/03/03 06:42:50;;;;;;;38.35;31.40;;;2.40;91.70;;;;;;5041491;28;20419;-46
2021/03/03 06:45:31;;;;;;;41.67;28.83;;;2.50;91.40;;;;;;5042086;28;20075;-44
2021/03/03 06:48:03;;;;;;;43.50;29.77;;;2.50;91.50;;;;;;5045083;28;20060;-46
2021/03/03 06:50:38;;;;;;;38.47;29.13;;;2.50;91.10;;;;;;5025243;28;20140;-47
2021/03/03 06:53:06;;;;;;;41.15;29.42;;;2.60;91.10;;;;;;5016142;28;20052;-45
2021/03/03 06:56:01;;;;;;;37.38;27.40;;;2.60;91.00;;;;;;5044398;28;20156;-48
2021/03/03 06:58:33;;;;;;;44.83;31.52;;;2.70;90.80;;;;;;4966637;28;20541;-47
2021/03/03 07:00:59;;;;;;;43.03;31.40;;;2.80;91.50;;;;;;4974518;28;20061;-45
2021/03/03 07:03:35;;;;;;;39.17;28.90;;;2.90;91.20;;;;;;4967440;28;20055;-49
2021/03/03 07:06:03;;;;;;;44.00;31.42;;;2.80;91.00;;;;;;4969338;28;20414;-45
2021/03/03 07:08:32;;;;;;;41.53;29.88;;;2.90;91.00;;;;;;4968908;28;20050;-46
2021/03/03 07:11:06;;;;;;;40.72;30.33;;;3.00;91.00;;;;;;4964066;28;20067;-46
2021/03/03 07:13:39;;;;;;;46.47;32.05;;;3.00;91.00;;;;;;4957004;28;20055;-46
2021/03/03 07:16:13;;;;;;;48.17;34.08;;;3.10;91.20;;;;;;4971570;28;20156;-48
2021/03/03 07:18:42;;;;;;;50.20;34.30;;;3.30;91.20;;;;;;4968949;28;20059;-46
2021/03/03 07:21:16;;;;;;;47.13;32.45;;;3.30;91.00;;;;;;4963010;28;20065;-46
2021/03/03 07:23:43;;;;;;;46.88;32.88;;;3.40;91.00;;;;;;4958925;28;20051;-46
2021/03/03 07:26:14;;;;;;;44.50;31.77;;;3.50;90.80;;;;;;4958540;28;20050;-47
2021/03/03 07:28:40;;;;;;;43.95;30.90;;;3.60;90.70;;;;;;4957622;28;20055;-47
2021/03/03 07:31:10;;;;;;;43.03;32.70;;;3.70;90.70;;;;;;4964027;28;20054;-46
2021/03/03 07:33:41;;;;;;;40.63;32.25;;;3.80;90.60;;;;;;4969327;28;20051;-47
2021/03/03 07:36:10;;;;;;;44.33;30.58;;;3.90;90.50;;;;;;5025314;28;20061;-44
2021/03/03 07:38:38;;;;;;;41.08;31.20;;;4.00;90.50;;;;;;5025527;28;20073;-47
2021/03/03 07:41:12;;;;;;;49.20;36.47;;;4.00;90.40;;;;;;5027825;28;20085;-43
2021/03/03 07:43:44;;;;;;;46.15;32.97;;;4.00;90.50;;;;;;5025624;28;20061;-45
2021/03/03 07:46:15;;;;;;;46.63;33.03;;;4.10;90.50;;;;;;5028473;28;20050;-44
2021/03/03 07:48:47;;;;;;;48.08;34.47;;;4.10;90.30;;;;;;5024962;28;20196;-46
2021/03/03 07:51:13;;;;;;;41.22;31.60;;;4.20;90.40;;;;;;5030308;28;20049;-49
2021/03/03 07:53:46;;;;;;;45.33;31.95;;;4.30;90.30;;;;;;5030723;28;20516;-49
2021/03/03 07:56:16;;;;;;;40.40;32.40;;;4.40;90.20;;;;;;5030904;28;20083;-49
2021/03/03 07:58:42;;;;;;;46.67;34.35;;;4.50;90.20;;;;;;5011259;28;20139;-47
2021/03/03 08:01:16;;;;;;;43.15;32.42;;;4.60;90.00;;;;;;5028930;28;20061;-49
2021/03/03 08:03:43;;;;;;;45.53;31.13;;;4.70;89.60;;;;;;5022543;28;20060;-43
2021/03/03 08:06:31;;;;;;;43.20;33.28;;;4.90;89.30;;;;;;5033825;28;20102;-48
2021/03/03 08:09:13;;;;;;;52.83;40.92;;;5.10;88.70;;;;;;5023250;28;20045;-50
2021/03/03 08:11:46;;;;;;;125.45;93.03;;;5.60;88.00;;;;;;5018565;28;20049;-48
2021/03/03 08:14:29;;;;;;;69.97;52.00;;;6.00;86.80;;;;;;5014582;28;20633;-46
2021/03/03 08:16:57;;;;;;;44.83;33.17;;;6.40;85.60;;;;;;5026338;28;20053;-51
2021/03/03 08:19:45;;;;;;;45.55;31.20;;;6.50;84.30;;;;;;5025435;28;20040;-49
2021/03/03 08:22:15;;;;;;;50.88;35.42;;;6.50;84.70;;;;;;5030868;28;20077;-48
2021/03/03 08:24:46;;;;;;;48.47;35.35;;;6.60;84.20;;;;;;5027238;28;20053;-52
2021/03/03 08:27:30;;;;;;;46.08;33.38;;;6.60;84.40;;;;;;5034258;28;20099;-48
2021/03/03 08:30:09;;;;;;;46.70;34.45;;;6.60;83.90;;;;;;5021811;28;20125;-47
2021/03/03 08:32:38;;;;;;;47.50;35.40;;;6.60;83.90;;;;;;5013251;28;20379;-51
2021/03/03 08:35:05;;;;;;;44.40;34.45;;;6.60;84.30;;;;;;5024237;28;20082;-46
2021/03/03 08:37:33;;;;;;;144.57;110.25;;;6.80;85.00;;;;;;5025290;28;20416;-49
2021/03/03 08:39:59;;;;;;;57.08;43.08;;;7.10;84.80;;;;;;5024225;28;20151;-46
2021/03/03 08:42:28;;;;;;;54.88;39.00;;;7.40;84.20;;;;;;5026658;28;20048;-49
2021/03/03 08:45:06;;;;;;;50.10;36.58;;;7.70;82.10;;;;;;5025120;28;20104;-44
2021/03/03 08:47:52;;;;;;;54.28;40.22;;;8.10;82.10;;;;;;5020608;28;20383;-48
2021/03/03 08:50:29;;;;;;;43.75;35.58;;;8.40;79.50;;;;;;5020337;28;20053;-46
2021/03/03 08:53:31;;;;;;;51.80;39.13;;;8.70;78.70;;;;;;5024070;28;20062;-51
2021/03/03 08:55:59;;;;;;;;;;;9.10;76.60;;;;;;4972801;28;20578;-47
2021/03/03 08:58:35;;;;;;;48.35;37.83;;;9.30;76.10;;;;;;4973752;28;20440;-47
2021/03/03 09:01:03;;;;;;;43.70;34.38;;;9.60;75.30;;;;;;4974072;28;20054;-45
2021/03/03 09:03:32;;;;;;;45.42;35.72;;;9.90;77.40;;;;;;4974251;28;20749;-45
2021/03/03 09:05:58;;;;;;;43.17;33.38;;;10.10;76.10;;;;;;4966328;28;20067;-46
2021/03/03 09:08:30;;;;;;;45.72;34.72;;;10.10;75.30;;;;;;4968408;28;20089;-50
2021/03/03 09:11:13;;;;;;;42.20;35.17;;;10.20;75.30;;;;;;4977926;28;20057;-48
2021/03/03 09:13:41;;;;;;;47.38;36.40;;;10.20;73.50;;;;;;4977759;28;20058;-47
2021/03/03 09:16:16;;;;;;;46.42;34.97;;;10.00;76.20;;;;;;4979525;28;20042;-45
2021/03/03 09:18:42;;;;;;;45.15;35.65;;;9.80;75.50;;;;;;4974311;28;20057;-44
2021/03/03 09:21:10;;;;;;;49.35;35.88;;;9.90;76.60;;;;;;4979289;28;20050;-45
2021/03/03 09:23:37;;;;;;;45.35;36.50;;;9.80;75.60;;;;;;4981030;28;20066;-49
2021/03/03 09:26:26;;;;;;;55.17;45.88;;;10.00;76.30;;;;;;4976376;28;20038;-46
2021/03/03 09:28:54;;;;;;;127.82;107.40;;;10.10;74.80;;;;;;4979296;28;20120;-49
2021/03/03 09:31:41;;;;;;;54.05;40.72;;;10.00;76.10;;;;;;5028249;28;20127;-46
2021/03/03 09:34:07;;;;;;;45.20;36.67;;;9.90;73.80;;;;;;5012901;28;20509;-47
2021/03/03 09:36:33;;;;;;;46.03;38.75;;;10.20;75.90;;;;;;5032396;28;20094;-50
2021/03/03 09:39:01;;;;;;;49.25;40.03;;;10.20;74.30;;;;;;5033984;28;20040;-45
2021/03/03 09:41:28;;;;;;;45.10;37.95;;;10.40;74.90;;;;;;5032388;28;20056;-46
2021/03/03 09:44:05;;;;;;;48.17;36.95;;;10.40;74.10;;;;;;5030256;28;20054;-45
2021/03/03 09:46:53;;;;;;;48.58;39.00;;;10.40;72.90;;;;;;5030972;28;20068;-46
2021/03/03 09:49:28;;;;;;;53.50;41.70;;;10.70;73.10;;;;;;5011780;28;20413;-47
2021/03/03 09:51:56;;;;;;;55.25;40.92;;;10.80;72.30;;;;;;5030802;28;20049;-49
2021/03/03 09:54:38;;;;;;;45.05;38.30;;;10.90;71.90;;;;;;5034126;28;20041;-52
2021/03/03 09:57:06;;;;;;;44.50;37.33;;;11.40;71.80;;;;;;5040168;28;20053;-49
2021/03/03 09:59:38;;;;;;;55.25;42.95;;;11.20;69.60;;;;;;5028293;28;20057;-48
2021/03/03 10:02:05;;;;;;;48.67;40.20;;;11.40;71.90;;;;;;5022207;28;20071;-52
2021/03/03 10:04:36;;;;;;;43.55;37.13;;;11.70;71.40;;;;;;5007455;28;20049;-47
2021/03/03 10:07:10;;;;;;;43.03;37.53;;;11.70;71.10;;;;;;5029496;28;20440;-50
2021/03/03 10:09:38;;;;;;;48.55;39.88;;;12.10;70.80;;;;;;5035364;28;20074;-50
2021/03/03 10:12:16;;;;;;;47.03;39.65;;;11.60;70.80;;;;;;5023524;28;20073;-52
2021/03/03 10:15:02;;;;;;;47.63;38.38;;;11.50;69.30;;;;;;5020246;28;20061;-45
2021/03/03 10:17:35;;;;;;;45.55;38.22;;;11.20;70.00;;;;;;5018770;28;20073;-47
2021/03/03 10:20:03;;;;;;;54.10;42.30;;;11.20;72.40;;;;;;5024680;28;20109;-50
2021/03/03 10:22:31;;;;;;;50.53;41.38;;;11.00;72.90;;;;;;4995855;28;20642;-47
2021/03/03 10:24:58;;;;;;;50.45;39.95;;;10.90;72.20;;;;;;5021478;28;20418;-47
2021/03/03 10:27:25;;;;;;;50.30;38.55;;;10.60;72.40;;;;;;5025935;28;20073;-50
2021/03/03 10:29:51;;;;;;;50.58;39.80;;;10.60;73.60;;;;;;5023816;28;20057;-49
2021/03/03 10:32:20;;;;;;;54.70;43.72;;;10.60;73.70;;;;;;5006910;28;20124;-48
2021/03/03 10:34:46;;;;;;;85.82;68.20;;;10.40;74.50;;;;;;5021463;28;20137;-49
2021/03/03 10:37:27;;;;;;;53.70;43.75;;;10.40;75.30;;;;;;5023435;28;20053;-51
2021/03/03 10:39:53;;;;;;;50.90;42.55;;;10.20;75.60;;;;;;5008191;28;20089;-47
2021/03/03 10:42:27;;;;;;;52.83;44.25;;;10.20;76.10;;;;;;5022093;28;20048;-46
2021/03/03 10:44:53;;;;;;;50.05;39.58;;;10.00;77.00;;;;;;4979927;28;20136;-46
2021/03/03 10:47:37;;;;;;;55.65;44.80;;;10.00;77.30;;;;;;5017664;28;20065;-44
2021/03/03 10:50:08;;;;;;;51.03;42.10;;;9.90;77.40;;;;;;5010720;28;20069;-49
2021/03/03 10:52:34;;;;;;;56.22;43.15;;;10.00;77.20;;;;;;5022591;28;20045;-46
2021/03/03 10:55:00;;;;;;;57.58;45.35;;;10.10;77.10;;;;;;5024878;28;20109;-48
2021/03/03 10:57:26;;;;;;;55.47;44.17;;;10.00;77.50;;;;;;5014831;28;20124;-46
2021/03/03 11:00:06;;;;;;;53.53;42.80;;;10.10;77.70;;;;;;5001290;28;20149;-49
2021/03/03 11:02:35;;;;;;;57.75;46.63;;;10.20;78.00;;;;;;5024143;28;20041;-49
2021/03/03 11:05:01;;;;;;;55.92;47.38;;;10.30;77.20;;;;;;5007129;28;20042;-49
2021/03/03 11:07:27;;;;;;;59.63;47.67;;;10.40;76.90;;;;;;5025647;28;20107;-50
2021/03/03 11:09:55;;;;;;;58.95;48.78;;;10.50;77.00;;;;;;5024676;28;20128;-50
2021/03/03 11:12:23;;;;;;;56.15;48.55;;;10.40;75.90;;;;;;5027126;28;20053;-50
2021/03/03 11:14:56;;;;;;;56.15;47.55;;;10.50;75.80;;;;;;5015237;28;20057;-49
2021/03/03 11:17:25;;;;;;;62.83;50.28;;;10.60;75.40;;;;;;5026957;28;20492;-50
2021/03/03 11:19:53;;;;;;;58.40;46.50;;;10.60;75.70;;;;;;5033610;28;20053;-51
2021/03/03 11:22:21;;;;;;;53.58;45.95;;;10.70;75.60;;;;;;5056220;28;20488;-44
2021/03/03 11:24:49;;;;;;;54.15;45.03;;;10.60;75.30;;;;;;5038092;28;20151;-49
2021/03/03 11:27:22;;;;;;;56.55;44.38;;;10.60;75.30;;;;;;5060072;28;20071;-48
2021/03/03 11:29:48;;;;;;;46.97;41.28;;;10.60;74.60;;;;;;5064357;28;20051;-50
2021/03/03 11:32:16;;;;;;;48.25;41.47;;;10.70;73.90;;;;;;5063409;28;20045;-47
2021/03/03 11:34:46;;;;;;;46.92;40.08;;;10.40;74.50;;;;;;5063210;28;20040;-46
2021/03/03 11:37:17;;;;;;;46.33;39.42;;;10.40;75.20;;;;;;5033907;28;20088;-50
2021/03/03 11:39:43;;;;;;;45.83;39.58;;;10.50;75.50;;;;;;5065347;28;20052;-47
2021/03/03 11:42:09;;;;;;;66.30;58.10;;;10.30;75.00;;;;;;5060365;28;20051;-46
2021/03/03 11:44:37;;;;;;;48.10;40.50;;;10.70;75.30;;;;;;5061346;28;20057;-49
2021/03/03 11:47:19;;;;;;;44.95;40.05;;;10.70;74.60;;;;;;5064159;28;20515;-48
2021/03/03 11:49:47;;;;;;;39.70;35.03;;;11.10;73.70;;;;;;5061863;28;20127;-49
2021/03/03 11:52:16;;;;;;;38.17;34.17;;;11.30;71.60;;;;;;5043815;28;20058;-44
2021/03/03 11:54:47;;;;;;;38.03;33.78;;;11.60;70.50;;;;;;5053995;28;20048;-47
2021/03/03 11:57:13;;;;;;;34.67;31.10;;;11.80;69.50;;;;;;5054198;28;20072;-47
2021/03/03 11:59:44;;;;;;;34.67;31.15;;;12.00;68.80;;;;;;5061308;28;20061;-47
2021/03/03 12:02:13;;;;;;;35.25;31.65;;;12.20;68.00;;;;;;5062711;28;20059;-47
2021/03/03 12:04:42;;;;;;;32.90;29.45;;;12.80;67.60;;;;;;5062843;28;20059;-48
2021/03/03 12:07:08;;;;;;;29.77;26.77;;;13.20;65.90;;;;;;5064445;28;20048;-46
2021/03/03 12:09:42;;;;;;;28.17;25.38;;;13.20;65.00;;;;;;5051945;28;20064;-45
2021/03/03 12:12:12;;;;;;;28.60;25.77;;;13.80;63.30;;;;;;5050427;28;20056;-50
2021/03/03 12:14:40;;;;;;;29.48;26.48;;;13.80;63.30;;;;;;5061758;28;20045;-46
2021/03/03 12:17:06;;;;;;;28.55;25.55;;;13.40;62.10;;;;;;5068027;28;20053;-48
2021/03/03 12:19:34;;;;;;;29.92;27.13;;;13.30;64.60;;;;;;5063053;28;20113;-47
2021/03/03 12:22:05;;;;;;;30.55;27.65;;;13.60;63.80;;;;;;5044399;28;20055;-48
2021/03/03 12:24:35;;;;;;;31.98;28.52;;;14.10;62.70;;;;;;5042883;28;20049;-48
2021/03/03 12:27:06;;;;;;;31.92;28.60;;;14.00;59.80;;;;;;5055518;28;20400;-51
2021/03/03 12:29:35;;;;;;;31.73;28.55;;;14.30;60.60;;;;;;5062944;28;20044;-46
2021/03/03 12:32:07;;;;;;;32.08;28.67;;;14.40;60.10;;;;;;5061512;28;20472;-46
2021/03/03 12:34:37;;;;;;;33.25;29.83;;;14.10;58.80;;;;;;5056314;28;20463;-49
2021/03/03 12:37:05;;;;;;;48.80;43.65;;;14.00;58.10;;;;;;5053754;28;20492;-43
2021/03/03 12:39:31;;;;;;;36.97;33.33;;;14.00;59.80;;;;;;5045511;28;20165;-45
2021/03/03 12:42:00;;;;;;;35.72;31.95;;;13.80;59.30;;;;;;5041903;28;20389;-44
2021/03/03 12:44:28;;;;;;;35.40;31.85;;;13.40;58.40;;;;;;5050579;28;20051;-41
2021/03/03 12:46:55;;;;;;;32.25;28.85;;;13.60;58.40;;;;;;5038837;28;20106;-42
2021/03/03 12:49:21;;;;;;;32.03;28.70;;;14.00;59.50;;;;;;5059302;28;20044;-44
2021/03/03 12:51:50;;;;;;;31.85;28.65;;;14.00;57.80;;;;;;5059823;28;20929;-42
2021/03/03 12:54:19;;;;;;;31.58;27.42;;;14.00;58.50;;;;;;5058511;28;20032;-46